createdAt,value
2019-02-24T00:00:09.813Z,1032.30
2019-02-24T00:02:02.705Z,1032.27
2019-02-24T00:03:02.713Z,1032.25
2019-02-24T00:04:55.615Z,1032.23
2019-02-24T00:05:55.616Z,1032.22
2019-02-24T00:07:48.507Z,1032.26
2019-02-24T00:08:48.522Z,1032.26
2019-02-24T00:10:41.419Z,1032.28
2019-02-24T00:11:41.422Z,1032.28
2019-02-24T00:13:34.326Z,1032.30
2019-02-24T00:14:34.328Z,1032.31
2019-02-24T00:16:27.221Z,1032.29
2019-02-24T00:17:27.230Z,1032.32
2019-02-24T00:19:20.135Z,1032.27
2019-02-24T00:20:20.134Z,1032.28
2019-02-24T00:22:13.028Z,1032.25
2019-02-24T00:23:13.037Z,1032.28
2019-02-24T00:25:05.955Z,1032.25
2019-02-24T00:26:05.942Z,1032.26
2019-02-24T00:28:06.783Z,1032.22
2019-02-24T00:28:58.843Z,1032.23
2019-02-24T00:30:51.744Z,1032.22
2019-02-24T00:31:51.749Z,1032.22
2019-02-24T00:33:45.161Z,1032.16
2019-02-24T00:34:45.160Z,1032.15
2019-02-24T00:36:38.062Z,1032.19
2019-02-24T00:37:38.064Z,1032.18
2019-02-24T00:39:31.468Z,1032.17
2019-02-24T00:40:31.476Z,1032.20
2019-02-24T00:42:24.370Z,1032.23
2019-02-24T00:43:24.376Z,1032.21
2019-02-24T00:45:17.280Z,1032.26
2019-02-24T00:46:17.283Z,1032.24
2019-02-24T00:48:10.207Z,1032.28
2019-02-24T00:49:10.217Z,1032.28
2019-02-24T00:51:03.121Z,1032.25
2019-02-24T00:52:03.122Z,1032.26
2019-02-24T00:53:56.030Z,1032.24
2019-02-24T00:54:56.026Z,1032.23
2019-02-24T00:56:48.923Z,1032.30
2019-02-24T00:57:48.931Z,1032.29
2019-02-24T00:59:41.835Z,1032.29
2019-02-24T01:00:41.837Z,1032.26
2019-02-24T01:02:34.729Z,1032.27
2019-02-24T01:03:34.742Z,1032.28
2019-02-24T01:05:27.641Z,1032.28
2019-02-24T01:06:27.647Z,1032.30
2019-02-24T01:08:20.538Z,1032.27
2019-02-24T01:09:20.546Z,1032.27
2019-02-24T01:11:13.940Z,1032.25
2019-02-24T01:12:13.944Z,1032.28
2019-02-24T01:14:07.841Z,1032.27
2019-02-24T01:15:07.843Z,1032.24
2019-02-24T01:17:00.739Z,1032.26
2019-02-24T01:18:00.742Z,1032.24
2019-02-24T01:19:53.651Z,1032.26
2019-02-24T01:20:53.652Z,1032.22
2019-02-24T01:22:46.546Z,1032.19
2019-02-24T01:23:46.553Z,1032.19
2019-02-24T01:25:39.459Z,1032.15
2019-02-24T01:26:39.459Z,1032.13
2019-02-24T01:28:32.350Z,1032.12
2019-02-24T01:29:32.358Z,1032.14
2019-02-24T01:31:25.263Z,1032.11
2019-02-24T01:32:25.266Z,1032.10
2019-02-24T01:34:18.164Z,1032.14
2019-02-24T01:35:18.167Z,1032.13
2019-02-24T01:37:11.066Z,1032.12
2019-02-24T01:38:11.074Z,1032.11
2019-02-24T01:40:03.974Z,1032.13
2019-02-24T01:41:03.979Z,1032.16
2019-02-24T01:42:56.886Z,1032.14
2019-02-24T01:43:56.882Z,1032.12
2019-02-24T01:45:49.783Z,1032.07
2019-02-24T01:46:49.786Z,1032.11
2019-02-24T01:48:42.682Z,1032.07
2019-02-24T01:49:42.688Z,1032.08
2019-02-24T01:51:35.589Z,1032.11
2019-02-24T01:52:35.590Z,1032.06
2019-02-24T01:54:28.488Z,1032.07
2019-02-24T01:55:28.490Z,1032.06
2019-02-24T01:57:21.382Z,1032.04
2019-02-24T01:58:21.391Z,1032.07
2019-02-24T02:00:14.290Z,1032.07
2019-02-24T02:01:14.287Z,1032.07
2019-02-24T02:03:07.201Z,1032.08
2019-02-24T02:04:07.210Z,1032.03
2019-02-24T02:06:00.233Z,1032.03
2019-02-24T02:07:00.114Z,1032.02
2019-02-24T02:08:53.010Z,1031.95
2019-02-24T02:09:53.016Z,1031.97
2019-02-24T02:11:45.922Z,1032.00
2019-02-24T02:12:45.922Z,1032.01
2019-02-24T02:14:38.817Z,1031.99
2019-02-24T02:15:38.819Z,1032.00
2019-02-24T02:17:31.716Z,1032.00
2019-02-24T02:18:31.722Z,1031.98
2019-02-24T02:20:24.623Z,1031.97
2019-02-24T02:21:24.624Z,1031.95
2019-02-24T02:23:17.523Z,1031.92
2019-02-24T02:24:17.530Z,1031.92
2019-02-24T02:26:10.429Z,1031.81
2019-02-24T02:27:10.430Z,1031.79
2019-02-24T02:29:03.519Z,1031.76
2019-02-24T02:30:03.528Z,1031.78
2019-02-24T02:31:56.430Z,1031.75
2019-02-24T02:32:56.432Z,1031.78
2019-02-24T02:34:49.338Z,1031.77
2019-02-24T02:35:49.345Z,1031.78
2019-02-24T02:37:42.228Z,1031.73
2019-02-24T02:38:42.237Z,1031.75
2019-02-24T02:40:35.134Z,1031.75
2019-02-24T02:41:35.135Z,1031.74
2019-02-24T02:43:28.030Z,1031.83
2019-02-24T02:44:28.040Z,1031.86
2019-02-24T02:46:20.940Z,1031.86
2019-02-24T02:47:20.946Z,1031.87
2019-02-24T02:49:13.839Z,1031.87
2019-02-24T02:50:13.850Z,1031.87
2019-02-24T02:52:06.745Z,1031.86
2019-02-24T02:53:06.747Z,1031.88
2019-02-24T02:55:00.690Z,1031.85
2019-02-24T02:56:00.644Z,1031.89
2019-02-24T02:57:53.540Z,1031.85
2019-02-24T02:58:54.643Z,1031.88
2019-02-24T03:00:46.443Z,1031.84
2019-02-24T03:01:46.446Z,1031.82
2019-02-24T03:03:39.347Z,1031.85
2019-02-24T03:04:39.350Z,1031.85
2019-02-24T03:06:32.249Z,1031.87
2019-02-24T03:07:32.248Z,1031.85
2019-02-24T03:09:25.615Z,1031.85
2019-02-24T03:10:25.151Z,1031.80
2019-02-24T03:12:18.049Z,1031.74
2019-02-24T03:13:18.050Z,1031.71
2019-02-24T03:15:10.950Z,1031.73
2019-02-24T03:16:10.968Z,1031.71
2019-02-24T03:18:03.846Z,1031.75
2019-02-24T03:19:03.855Z,1031.73
2019-02-24T03:20:56.747Z,1031.75
2019-02-24T03:21:56.747Z,1031.74
2019-02-24T03:23:49.735Z,1031.78
2019-02-24T03:24:49.655Z,1031.79
2019-02-24T03:26:42.556Z,1031.72
2019-02-24T03:27:42.555Z,1031.75
2019-02-24T03:29:35.444Z,1031.73
2019-02-24T03:30:35.465Z,1031.73
2019-02-24T03:32:28.368Z,1031.72
2019-02-24T03:33:28.363Z,1031.75
2019-02-24T03:35:21.259Z,1031.73
2019-02-24T03:36:21.259Z,1031.72
2019-02-24T03:38:14.156Z,1031.74
2019-02-24T03:39:14.162Z,1031.76
2019-02-24T03:41:07.070Z,1031.76
2019-02-24T03:42:07.061Z,1031.75
2019-02-24T03:43:59.952Z,1031.75
2019-02-24T03:44:59.962Z,1031.76
2019-02-24T03:46:52.868Z,1031.80
2019-02-24T03:47:52.862Z,1031.87
2019-02-24T03:49:45.763Z,1031.89
2019-02-24T03:50:45.764Z,1031.93
2019-02-24T03:52:38.664Z,1031.98
2019-02-24T03:53:38.660Z,1031.95
2019-02-24T03:55:31.579Z,1031.95
2019-02-24T03:56:31.576Z,1032.00
2019-02-24T03:58:25.486Z,1032.03
2019-02-24T03:59:25.491Z,1032.07
2019-02-24T04:01:18.373Z,1032.01
2019-02-24T04:02:18.377Z,1032.00
2019-02-24T04:04:12.277Z,1031.96
2019-02-24T04:05:12.286Z,1031.97
2019-02-24T04:07:05.181Z,1031.96
2019-02-24T04:08:05.189Z,1031.94
2019-02-24T04:09:58.568Z,1031.87
2019-02-24T04:10:58.579Z,1031.93
2019-02-24T04:12:51.480Z,1031.84
2019-02-24T04:13:58.599Z,1031.82
2019-02-24T04:15:44.380Z,1031.83
2019-02-24T04:16:44.382Z,1031.79
2019-02-24T04:18:37.271Z,1031.85
2019-02-24T04:19:37.277Z,1031.81
2019-02-24T04:21:30.175Z,1031.80
2019-02-24T04:22:30.178Z,1031.81
2019-02-24T04:24:23.068Z,1031.81
2019-02-24T04:25:23.076Z,1031.77
2019-02-24T04:27:15.974Z,1031.70
2019-02-24T04:28:15.973Z,1031.74
2019-02-24T04:30:08.874Z,1031.78
2019-02-24T04:31:08.884Z,1031.83
2019-02-24T04:33:01.865Z,1031.84
2019-02-24T04:34:01.782Z,1031.86
2019-02-24T04:35:54.678Z,1031.90
2019-02-24T04:36:54.681Z,1031.90
2019-02-24T04:38:47.575Z,1031.89
2019-02-24T04:39:47.583Z,1031.90
2019-02-24T04:41:40.481Z,1031.96
2019-02-24T04:42:40.481Z,1031.95
2019-02-24T04:44:33.378Z,1031.99
2019-02-24T04:45:33.381Z,1031.97
2019-02-24T04:47:26.305Z,1031.92
2019-02-24T04:48:26.280Z,1031.92
2019-02-24T04:50:19.230Z,1031.86
2019-02-24T04:51:19.182Z,1031.82
2019-02-24T04:53:12.081Z,1031.76
2019-02-24T04:54:12.080Z,1031.77
2019-02-24T04:56:04.978Z,1031.77
2019-02-24T04:57:04.978Z,1031.76
2019-02-24T04:58:57.872Z,1031.74
2019-02-24T04:59:57.878Z,1031.73
2019-02-24T05:01:50.780Z,1031.76
2019-02-24T05:02:50.777Z,1031.78
2019-02-24T05:04:43.669Z,1031.79
2019-02-24T05:05:43.687Z,1031.77
2019-02-24T05:07:36.577Z,1031.73
2019-02-24T05:08:36.579Z,1031.70
2019-02-24T05:10:29.467Z,1031.72
2019-02-24T05:11:29.475Z,1031.70
2019-02-24T05:13:22.373Z,1031.68
2019-02-24T05:14:22.384Z,1031.69
2019-02-24T05:16:15.275Z,1031.78
2019-02-24T05:17:15.275Z,1031.79
2019-02-24T05:19:08.176Z,1031.82
2019-02-24T05:20:08.184Z,1031.83
2019-02-24T05:22:01.083Z,1031.86
2019-02-24T05:23:01.083Z,1031.83
2019-02-24T05:24:54.026Z,1031.88
2019-02-24T05:25:53.989Z,1031.89
2019-02-24T05:27:46.883Z,1031.94
2019-02-24T05:28:46.883Z,1031.94
2019-02-24T05:30:40.787Z,1031.98
2019-02-24T05:31:40.775Z,1031.94
2019-02-24T05:33:33.668Z,1031.98
2019-02-24T05:34:33.669Z,1031.97
2019-02-24T05:36:26.570Z,1031.99
2019-02-24T05:37:26.567Z,1031.98
2019-02-24T05:39:19.458Z,1032.01
2019-02-24T05:40:19.466Z,1032.01
2019-02-24T05:42:12.372Z,1031.99
2019-02-24T05:43:12.374Z,1031.98
2019-02-24T05:45:05.264Z,1031.99
2019-02-24T05:46:05.272Z,1032.00
2019-02-24T05:47:58.175Z,1032.05
2019-02-24T05:48:58.178Z,1032.06
2019-02-24T05:50:51.066Z,1032.08
2019-02-24T05:51:51.072Z,1032.08
2019-02-24T05:53:43.983Z,1032.08
2019-02-24T05:54:43.983Z,1032.08
2019-02-24T05:56:36.881Z,1032.13
2019-02-24T05:57:36.883Z,1032.14
2019-02-24T05:59:29.781Z,1032.12
2019-02-24T06:00:29.791Z,1032.10
2019-02-24T06:02:22.680Z,1032.08
2019-02-24T06:03:22.682Z,1032.07
2019-02-24T06:05:15.578Z,1032.02
2019-02-24T06:06:15.586Z,1032.05
2019-02-24T06:08:08.488Z,1032.07
2019-02-24T06:09:08.487Z,1032.08
2019-02-24T06:11:01.375Z,1032.09
2019-02-24T06:12:01.387Z,1032.10
2019-02-24T06:13:54.286Z,1032.10
2019-02-24T06:14:54.287Z,1032.11
2019-02-24T06:16:47.197Z,1032.12
2019-02-24T06:17:47.194Z,1032.11
2019-02-24T06:19:40.082Z,1032.16
2019-02-24T06:20:40.089Z,1032.14
2019-02-24T06:22:32.987Z,1032.18
2019-02-24T06:23:33.003Z,1032.20
2019-02-24T06:25:25.890Z,1032.17
2019-02-24T06:26:25.888Z,1032.18
2019-02-24T06:28:18.784Z,1032.16
2019-02-24T06:29:18.784Z,1032.16
2019-02-24T06:31:11.677Z,1032.13
2019-02-24T06:32:11.686Z,1032.13
2019-02-24T06:34:05.162Z,1032.13
2019-02-24T06:35:04.576Z,1032.17
2019-02-24T06:36:57.484Z,1032.12
2019-02-24T06:37:57.479Z,1032.13
2019-02-24T06:39:50.369Z,1032.15
2019-02-24T06:40:50.378Z,1032.17
2019-02-24T06:42:43.274Z,1032.19
2019-02-24T06:43:43.280Z,1032.19
2019-02-24T06:45:36.165Z,1032.19
2019-02-24T06:46:36.169Z,1032.20
2019-02-24T06:48:29.075Z,1032.20
2019-02-24T06:49:29.076Z,1032.17
2019-02-24T06:51:21.967Z,1032.20
2019-02-24T06:52:21.974Z,1032.21
2019-02-24T06:54:14.871Z,1032.22
2019-02-24T06:55:14.871Z,1032.24
2019-02-24T06:57:07.771Z,1032.21
2019-02-24T06:58:07.771Z,1032.17
2019-02-24T07:00:00.690Z,1032.16
2019-02-24T07:01:00.669Z,1032.20
2019-02-24T07:02:53.573Z,1032.17
2019-02-24T07:03:54.595Z,1032.11
2019-02-24T07:05:46.457Z,1032.12
2019-02-24T07:06:46.462Z,1032.10
2019-02-24T07:08:39.379Z,1032.11
2019-02-24T07:09:39.381Z,1032.17
2019-02-24T07:11:32.269Z,1032.24
2019-02-24T07:12:32.283Z,1032.23
2019-02-24T07:14:25.175Z,1032.20
2019-02-24T07:15:25.176Z,1032.19
2019-02-24T07:17:18.072Z,1032.17
2019-02-24T07:18:18.075Z,1032.19
2019-02-24T07:20:11.960Z,1032.24
2019-02-24T07:21:11.968Z,1032.20
2019-02-24T07:23:04.868Z,1032.18
2019-02-24T07:24:04.867Z,1032.23
2019-02-24T07:25:57.754Z,1032.19
2019-02-24T07:26:57.765Z,1032.23
2019-02-24T07:28:50.666Z,1032.25
2019-02-24T07:29:50.666Z,1032.28
2019-02-24T07:31:43.556Z,1032.30
2019-02-24T07:32:43.569Z,1032.31
2019-02-24T07:34:36.471Z,1032.34
2019-02-24T07:35:36.475Z,1032.36
2019-02-24T07:37:29.368Z,1032.42
2019-02-24T07:38:29.369Z,1032.44
2019-02-24T07:40:22.268Z,1032.49
2019-02-24T07:41:22.268Z,1032.49
2019-02-24T07:43:15.169Z,1032.53
2019-02-24T07:44:15.171Z,1032.52
2019-02-24T07:46:08.069Z,1032.56
2019-02-24T07:47:08.076Z,1032.59
2019-02-24T07:49:00.976Z,1032.66
2019-02-24T07:50:00.975Z,1032.69
2019-02-24T07:51:53.870Z,1032.70
2019-02-24T07:52:53.883Z,1032.73
2019-02-24T07:54:46.783Z,1032.75
2019-02-24T07:55:46.783Z,1032.73
2019-02-24T07:57:39.676Z,1032.75
2019-02-24T07:58:39.685Z,1032.74
2019-02-24T08:00:32.719Z,1032.75
2019-02-24T08:01:32.586Z,1032.75
2019-02-24T08:03:25.487Z,1032.70
2019-02-24T08:04:25.499Z,1032.69
2019-02-24T08:06:18.376Z,1032.70
2019-02-24T08:07:18.405Z,1032.68
2019-02-24T08:09:11.287Z,1032.70
2019-02-24T08:10:11.288Z,1032.68
2019-02-24T08:12:04.178Z,1032.69
2019-02-24T08:13:04.200Z,1032.67
2019-02-24T08:14:57.088Z,1032.68
2019-02-24T08:15:57.090Z,1032.65
2019-02-24T08:17:49.984Z,1032.68
2019-02-24T08:18:51.932Z,1032.67
2019-02-24T08:20:42.892Z,1032.63
2019-02-24T08:21:42.896Z,1032.66
2019-02-24T08:23:36.299Z,1032.68
2019-02-24T08:24:36.296Z,1032.67
2019-02-24T08:26:29.186Z,1032.69
2019-02-24T08:27:29.197Z,1032.73
2019-02-24T08:29:22.098Z,1032.73
2019-02-24T08:30:22.107Z,1032.72
2019-02-24T08:32:15.013Z,1032.71
2019-02-24T08:33:15.046Z,1032.74
2019-02-24T08:35:08.036Z,1032.74
2019-02-24T08:36:07.983Z,1032.76
2019-02-24T08:38:00.922Z,1032.70
2019-02-24T08:39:00.933Z,1032.73
2019-02-24T08:40:55.096Z,1032.77
2019-02-24T08:41:53.899Z,1032.79
2019-02-24T08:43:46.793Z,1032.81
2019-02-24T08:44:46.810Z,1032.82
2019-02-24T08:46:39.816Z,1032.80
2019-02-24T08:47:39.787Z,1032.77
2019-02-24T08:49:33.689Z,1032.74
2019-02-24T08:50:32.789Z,1032.70
2019-02-24T08:52:25.672Z,1032.73
2019-02-24T08:53:25.710Z,1032.72
2019-02-24T08:55:18.546Z,1032.71
2019-02-24T08:56:18.556Z,1032.70
2019-02-24T08:58:11.439Z,1032.72
2019-02-24T08:59:11.449Z,1032.76
2019-02-24T09:01:04.360Z,1032.79
2019-02-24T09:02:04.365Z,1032.77
2019-02-24T09:03:57.261Z,1032.73
2019-02-24T09:04:57.272Z,1032.69
2019-02-24T09:06:50.212Z,1032.66
2019-02-24T09:07:50.180Z,1032.70
2019-02-24T09:09:43.085Z,1032.72
2019-02-24T09:10:43.087Z,1032.79
2019-02-24T09:12:35.986Z,1032.83
2019-02-24T09:13:35.995Z,1032.88
2019-02-24T09:15:28.898Z,1032.92
2019-02-24T09:16:28.904Z,1032.93
2019-02-24T09:18:21.800Z,1032.95
2019-02-24T09:19:21.807Z,1032.96
2019-02-24T09:21:14.709Z,1033.00
2019-02-24T09:22:14.716Z,1032.96
2019-02-24T09:24:07.611Z,1033.02
2019-02-24T09:25:07.621Z,1033.04
2019-02-24T09:27:00.866Z,1033.10
2019-02-24T09:28:00.526Z,1033.08
2019-02-24T09:29:53.488Z,1033.08
2019-02-24T09:31:00.543Z,1033.08
2019-02-24T09:32:46.327Z,1033.11
2019-02-24T09:33:46.339Z,1033.09
2019-02-24T09:35:39.242Z,1033.08
2019-02-24T09:36:39.255Z,1033.08
2019-02-24T09:38:32.143Z,1033.11
2019-02-24T09:39:32.152Z,1033.08
2019-02-24T09:41:25.056Z,1033.14
2019-02-24T09:42:25.060Z,1033.18
2019-02-24T09:44:17.955Z,1033.16
2019-02-24T09:45:17.964Z,1033.16
2019-02-24T09:47:10.869Z,1033.11
2019-02-24T09:48:10.873Z,1033.12
2019-02-24T09:50:03.793Z,1033.08
2019-02-24T09:51:03.783Z,1033.05
2019-02-24T09:52:56.681Z,1033.06
2019-02-24T09:53:56.707Z,1033.04
2019-02-24T09:55:49.606Z,1033.03
2019-02-24T09:56:49.611Z,1033.01
2019-02-24T09:58:42.509Z,1032.98
2019-02-24T09:59:42.521Z,1032.98
2019-02-24T10:01:36.427Z,1032.98
2019-02-24T10:02:36.427Z,1032.98
2019-02-24T10:04:29.556Z,1033.01
2019-02-24T10:05:29.565Z,1033.01
2019-02-24T10:07:22.475Z,1033.00
2019-02-24T10:08:22.476Z,1033.04
2019-02-24T10:10:15.397Z,1033.02
2019-02-24T10:11:15.390Z,1033.03
2019-02-24T10:13:08.308Z,1033.06
2019-02-24T10:14:08.322Z,1033.07
2019-02-24T10:16:01.226Z,1033.05
2019-02-24T10:17:01.235Z,1033.00
2019-02-24T10:18:54.135Z,1033.03
2019-02-24T10:19:54.152Z,1033.05
2019-02-24T10:21:47.050Z,1033.04
2019-02-24T10:22:47.062Z,1033.04
2019-02-24T10:24:39.959Z,1033.05
2019-02-24T10:25:39.976Z,1033.08
2019-02-24T10:27:32.876Z,1033.03
2019-02-24T10:28:32.884Z,1033.06
2019-02-24T10:30:25.799Z,1033.09
2019-02-24T10:31:25.793Z,1033.11
2019-02-24T10:33:19.186Z,1033.11
2019-02-24T10:34:19.200Z,1033.13
2019-02-24T10:36:12.106Z,1033.16
2019-02-24T10:37:12.108Z,1033.18
2019-02-24T10:39:05.010Z,1033.16
2019-02-24T10:40:05.023Z,1033.15
2019-02-24T10:41:57.931Z,1033.10
2019-02-24T10:42:57.935Z,1033.12
2019-02-24T10:44:50.841Z,1033.12
2019-02-24T10:45:50.850Z,1033.09
2019-02-24T10:47:43.765Z,1033.11
2019-02-24T10:48:43.774Z,1033.15
2019-02-24T10:50:36.681Z,1033.11
2019-02-24T10:51:36.682Z,1033.09
2019-02-24T10:53:29.591Z,1033.11
2019-02-24T10:54:29.595Z,1033.07
2019-02-24T10:56:22.505Z,1033.10
2019-02-24T10:57:22.509Z,1033.11
2019-02-24T10:59:16.870Z,1033.13
2019-02-24T11:00:15.427Z,1033.07
2019-02-24T11:02:08.826Z,1033.08
2019-02-24T11:03:08.965Z,1033.06
2019-02-24T11:05:01.821Z,1033.06
2019-02-24T11:06:01.746Z,1033.08
2019-02-24T11:07:54.658Z,1033.05
2019-02-24T11:08:54.660Z,1033.06
2019-02-24T11:10:48.567Z,1032.96
2019-02-24T11:11:48.628Z,1032.98
2019-02-24T11:13:41.506Z,1032.95
2019-02-24T11:14:41.494Z,1032.93
2019-02-24T11:16:34.411Z,1032.92
2019-02-24T11:17:34.408Z,1032.94
2019-02-24T11:19:27.306Z,1032.91
2019-02-24T11:20:27.339Z,1032.91
2019-02-24T11:22:20.229Z,1032.93
2019-02-24T11:23:20.236Z,1032.93
2019-02-24T11:25:13.141Z,1032.98
2019-02-24T11:26:13.157Z,1032.98
2019-02-24T11:28:06.059Z,1032.98
2019-02-24T11:29:06.061Z,1033.00
2019-02-24T11:30:58.959Z,1033.02
2019-02-24T11:31:58.972Z,1033.05
2019-02-24T11:33:51.887Z,1033.08
2019-02-24T11:34:51.891Z,1033.11
2019-02-24T11:36:44.800Z,1033.09
2019-02-24T11:37:44.809Z,1033.07
2019-02-24T11:39:37.705Z,1033.02
2019-02-24T11:40:37.722Z,1033.03
2019-02-24T11:42:30.627Z,1033.02
2019-02-24T11:43:30.633Z,1032.97
2019-02-24T11:45:23.535Z,1032.96
2019-02-24T11:46:23.547Z,1032.95
2019-02-24T11:48:16.455Z,1032.89
2019-02-24T11:49:16.463Z,1032.90
2019-02-24T11:51:09.363Z,1032.86
2019-02-24T11:52:09.375Z,1032.84
2019-02-24T11:54:02.284Z,1032.78
2019-02-24T11:55:02.290Z,1032.80
2019-02-24T11:56:55.223Z,1032.76
2019-02-24T11:57:55.206Z,1032.78
2019-02-24T11:59:48.111Z,1032.78
2019-02-24T12:00:48.126Z,1032.77
2019-02-24T12:02:41.894Z,1032.81
2019-02-24T12:03:41.042Z,1032.84
2019-02-24T12:05:33.945Z,1032.87
2019-02-24T12:06:33.957Z,1032.86
2019-02-24T12:08:26.864Z,1032.81
2019-02-24T12:09:26.879Z,1032.81
2019-02-24T12:11:19.773Z,1032.79
2019-02-24T12:12:19.787Z,1032.89
2019-02-24T12:14:12.695Z,1032.88
2019-02-24T12:15:12.701Z,1032.92
2019-02-24T12:17:05.613Z,1032.91
2019-02-24T12:18:05.619Z,1032.94
2019-02-24T12:19:58.520Z,1032.91
2019-02-24T12:20:58.566Z,1032.89
2019-02-24T12:22:51.451Z,1032.90
2019-02-24T12:23:51.561Z,1032.84
2019-02-24T12:25:44.357Z,1032.82
2019-02-24T12:26:44.370Z,1032.78
2019-02-24T12:28:37.281Z,1032.76
2019-02-24T12:29:37.288Z,1032.74
2019-02-24T12:31:30.190Z,1032.69
2019-02-24T12:32:30.203Z,1032.63
2019-02-24T12:34:23.113Z,1032.63
2019-02-24T12:35:23.118Z,1032.61
2019-02-24T12:37:17.447Z,1032.62
2019-02-24T12:38:16.036Z,1032.62
2019-02-24T12:40:08.940Z,1032.59
2019-02-24T12:41:08.955Z,1032.57
2019-02-24T12:43:01.864Z,1032.58
2019-02-24T12:44:01.934Z,1032.63
2019-02-24T12:45:54.775Z,1032.59
2019-02-24T12:46:54.788Z,1032.57
2019-02-24T12:48:47.701Z,1032.56
2019-02-24T12:49:47.706Z,1032.52
2019-02-24T12:51:40.608Z,1032.54
2019-02-24T12:52:40.625Z,1032.55
2019-02-24T12:54:33.545Z,1032.54
2019-02-24T12:55:33.543Z,1032.58
2019-02-24T12:57:26.458Z,1032.54
2019-02-24T12:58:26.464Z,1032.49
2019-02-24T13:00:19.387Z,1032.45
2019-02-24T13:01:19.405Z,1032.37
2019-02-24T13:03:12.325Z,1032.36
2019-02-24T13:04:12.327Z,1032.34
2019-02-24T13:06:05.236Z,1032.31
2019-02-24T13:07:05.245Z,1032.33
2019-02-24T13:08:58.154Z,1032.29
2019-02-24T13:09:58.161Z,1032.28
2019-02-24T13:11:51.093Z,1032.22
2019-02-24T13:12:51.108Z,1032.20
2019-02-24T13:14:44.024Z,1032.22
2019-02-24T13:15:44.029Z,1032.26
2019-02-24T13:17:36.973Z,1032.28
2019-02-24T13:18:36.978Z,1032.29
2019-02-24T13:20:29.853Z,1032.33
2019-02-24T13:21:29.870Z,1032.28
2019-02-24T13:23:22.782Z,1032.29
2019-02-24T13:24:22.790Z,1032.29
2019-02-24T13:26:15.697Z,1032.24
2019-02-24T13:27:15.708Z,1032.25
2019-02-24T13:29:08.620Z,1032.22
2019-02-24T13:30:08.655Z,1032.23
2019-02-24T13:32:01.532Z,1032.25
2019-02-24T13:33:01.552Z,1032.25
2019-02-24T13:34:54.463Z,1032.23
2019-02-24T13:35:54.466Z,1032.24
2019-02-24T13:37:47.376Z,1032.21
2019-02-24T13:38:47.385Z,1032.25
2019-02-24T13:40:40.290Z,1032.27
2019-02-24T13:41:40.305Z,1032.25
2019-02-24T13:43:33.217Z,1032.29
2019-02-24T13:44:33.223Z,1032.31
2019-02-24T13:46:26.131Z,1032.29
2019-02-24T13:47:26.144Z,1032.32
2019-02-24T13:49:19.054Z,1032.33
2019-02-24T13:50:19.062Z,1032.34
2019-02-24T13:52:11.967Z,1032.30
2019-02-24T13:53:11.984Z,1032.28
2019-02-24T13:55:04.918Z,1032.25
2019-02-24T13:56:04.928Z,1032.23
2019-02-24T13:57:57.838Z,1032.30
2019-02-24T13:58:57.855Z,1032.26
2019-02-24T14:00:50.755Z,1032.27
2019-02-24T14:01:50.767Z,1032.23
2019-02-24T14:03:43.768Z,1032.24
2019-02-24T14:04:43.691Z,1032.23
2019-02-24T14:06:36.606Z,1032.20
2019-02-24T14:07:36.612Z,1032.23
2019-02-24T14:09:29.523Z,1032.17
2019-02-24T14:10:29.531Z,1032.19
2019-02-24T14:12:22.439Z,1032.17
2019-02-24T14:13:22.453Z,1032.20
2019-02-24T14:15:15.383Z,1032.19
2019-02-24T14:16:15.373Z,1032.15
2019-02-24T14:18:08.287Z,1032.09
2019-02-24T14:19:08.308Z,1032.10
2019-02-24T14:21:01.200Z,1032.11
2019-02-24T14:22:01.215Z,1032.11
2019-02-24T14:23:54.129Z,1032.11
2019-02-24T14:24:54.137Z,1032.14
2019-02-24T14:26:47.045Z,1032.17
2019-02-24T14:27:47.060Z,1032.15
2019-02-24T14:29:39.971Z,1032.20
2019-02-24T14:30:39.980Z,1032.19
2019-02-24T14:32:33.316Z,1032.18
2019-02-24T14:33:32.899Z,1032.21
2019-02-24T14:35:25.813Z,1032.21
2019-02-24T14:36:25.823Z,1032.21
2019-02-24T14:38:18.752Z,1032.22
2019-02-24T14:39:18.745Z,1032.19
2019-02-24T14:41:12.645Z,1032.18
2019-02-24T14:42:12.669Z,1032.21
2019-02-24T14:44:05.573Z,1032.23
2019-02-24T14:45:05.581Z,1032.27
2019-02-24T14:46:58.487Z,1032.28
2019-02-24T14:47:58.503Z,1032.29
2019-02-24T14:49:51.417Z,1032.26
2019-02-24T14:50:51.423Z,1032.30
2019-02-24T14:52:45.322Z,1032.27
2019-02-24T14:53:45.335Z,1032.25
2019-02-24T14:55:39.540Z,1032.24
2019-02-24T14:56:38.256Z,1032.27
2019-02-24T14:58:31.168Z,1032.23
2019-02-24T14:59:31.177Z,1032.22
2019-02-24T15:01:24.081Z,1032.19
2019-02-24T15:02:24.098Z,1032.22
2019-02-24T15:04:17.018Z,1032.27
2019-02-24T15:05:17.092Z,1032.27
2019-02-24T15:07:09.930Z,1032.32
2019-02-24T15:08:09.948Z,1032.34
2019-02-24T15:10:02.857Z,1032.40
2019-02-24T15:11:02.860Z,1032.37
2019-02-24T15:12:55.772Z,1032.35
2019-02-24T15:13:55.781Z,1032.34
2019-02-24T15:15:48.691Z,1032.36
2019-02-24T15:16:48.700Z,1032.39
2019-02-24T15:18:41.613Z,1032.38
2019-02-24T15:19:41.624Z,1032.40
2019-02-24T15:21:34.530Z,1032.39
2019-02-24T15:22:34.546Z,1032.37
2019-02-24T15:24:27.458Z,1032.32
2019-02-24T15:25:27.468Z,1032.31
2019-02-24T15:27:20.375Z,1032.27
2019-02-24T15:28:20.388Z,1032.25
2019-02-24T15:30:13.302Z,1032.19
2019-02-24T15:31:13.310Z,1032.21
2019-02-24T15:33:06.232Z,1032.16
2019-02-24T15:34:06.233Z,1032.18
2019-02-24T15:35:59.156Z,1032.20
2019-02-24T15:36:59.154Z,1032.24
2019-02-24T15:38:52.068Z,1032.30
2019-02-24T15:39:52.077Z,1032.29
2019-02-24T15:41:44.985Z,1032.28
2019-02-24T15:42:45.000Z,1032.28
2019-02-24T15:44:37.911Z,1032.29
2019-02-24T15:45:37.920Z,1032.30
2019-02-24T15:47:30.831Z,1032.23
2019-02-24T15:48:30.842Z,1032.27
2019-02-24T15:50:23.754Z,1032.25
2019-02-24T15:51:23.763Z,1032.23
2019-02-24T15:53:16.669Z,1032.28
2019-02-24T15:54:16.683Z,1032.25
2019-02-24T15:56:09.605Z,1032.26
2019-02-24T15:57:09.612Z,1032.24
2019-02-24T15:59:02.529Z,1032.22
2019-02-24T16:00:02.539Z,1032.26
2019-02-24T16:01:55.447Z,1032.23
2019-02-24T16:03:01.425Z,1032.24
2019-02-24T16:04:48.378Z,1032.22
2019-02-24T16:05:48.383Z,1032.20
2019-02-24T16:07:41.289Z,1032.13
2019-02-24T16:08:41.304Z,1032.14
2019-02-24T16:10:34.215Z,1032.09
2019-02-24T16:11:34.240Z,1032.08
2019-02-24T16:13:27.130Z,1032.10
2019-02-24T16:14:27.143Z,1032.10
2019-02-24T16:16:20.054Z,1032.13
2019-02-24T16:17:20.063Z,1032.12
2019-02-24T16:19:12.977Z,1032.15
2019-02-24T16:20:12.988Z,1032.15
2019-02-24T16:22:05.896Z,1032.13
2019-02-24T16:23:05.910Z,1032.12
2019-02-24T16:24:58.820Z,1032.11
2019-02-24T16:25:58.837Z,1032.09
2019-02-24T16:27:51.730Z,1032.12
2019-02-24T16:28:51.745Z,1032.07
2019-02-24T16:30:44.663Z,1032.11
2019-02-24T16:31:44.670Z,1032.13
2019-02-24T16:33:37.577Z,1032.14
2019-02-24T16:34:37.592Z,1032.18
2019-02-24T16:36:30.504Z,1032.13
2019-02-24T16:37:30.512Z,1032.14
2019-02-24T16:39:23.426Z,1032.14
2019-02-24T16:40:23.433Z,1032.18
2019-02-24T16:42:16.346Z,1032.21
2019-02-24T16:43:16.352Z,1032.22
2019-02-24T16:45:09.266Z,1032.24
2019-02-24T16:46:09.274Z,1032.22
2019-02-24T16:48:02.177Z,1032.22
2019-02-24T16:49:03.479Z,1032.21
2019-02-24T16:50:55.101Z,1032.22
2019-02-24T16:51:55.108Z,1032.25
2019-02-24T16:53:48.018Z,1032.26
2019-02-24T16:54:52.654Z,1032.26
2019-02-24T16:56:40.944Z,1032.21
2019-02-24T16:57:40.950Z,1032.20
2019-02-24T16:59:33.862Z,1032.20
2019-02-24T17:00:33.893Z,1032.23
2019-02-24T17:02:26.770Z,1032.29
2019-02-24T17:03:26.785Z,1032.29
2019-02-24T17:05:19.697Z,1032.34
2019-02-24T17:06:19.699Z,1032.32
2019-02-24T17:08:12.603Z,1032.34
2019-02-24T17:09:12.618Z,1032.37
2019-02-24T17:11:07.658Z,1032.44
2019-02-24T17:12:05.534Z,1032.48
2019-02-24T17:13:58.449Z,1032.60
2019-02-24T17:14:58.472Z,1032.59
2019-02-24T17:16:51.374Z,1032.61
2019-02-24T17:17:51.380Z,1032.58
2019-02-24T17:19:44.294Z,1032.54
2019-02-24T17:20:44.293Z,1032.55
2019-02-24T17:22:37.198Z,1032.53
2019-02-24T17:23:37.210Z,1032.52
2019-02-24T17:25:30.120Z,1032.53